sensor_id;sensor_type;location;lat;lon;timestamp;pressure;altitude;pressure_sealevel;temperature;humidity
6194;BME280;3130;41.564;23.280;2023-06-10T00:02:00;98364.16;;;18.34;100.00
6194;BME280;3130;41.564;23.280;2023-06-10T00:04:28;98355.03;;;18.30;100.00
6194;BME280;3130;41.564;23.280;2023-06-10T00:06:55;98350.88;;;18.19;100.00
6194;BME280;3130;41.564;23.280;2023-06-10T00:09:22;98347.66;;;18.18;100.00
6194;BME280;3130;41.564;23.280;2023-06-10T00:11:49;98351.66;;;18.29;100.00
6194;BME280;3130;41.564;23.280;2023-06-10T00:14:16;98347.97;;;18.40;100.00
6194;BME280;3130;41.564;23.280;2023-06-10T00:16:43;98344.53;;;18.31;100.00
6194;BME280;3130;41.564;23.280;2023-06-10T00:19:11;98328.28;;;18.12;100.00
6194;BME280;3130;41.564;23.280;2023-06-10T00:21:42;98332.00;;;18.10;100.00
6194;BME280;3130;41.564;23.280;2023-06-10T00:24:10;98333.44;;;18.04;100.00
6194;BME280;3130;41.564;23.280;2023-06-10T00:26:39;98327.38;;;17.96;100.00
6194;BME280;3130;41.564;23.280;2023-06-10T00:29:06;98330.56;;;18.07;100.00
6194;BME280;3130;41.564;23.280;2023-06-10T00:31:34;98326.88;;;18.18;100.00
6194;BME280;3130;41.564;23.280;2023-06-10T00:34:01;98287.91;;;18.10;100.00
6194;BME280;3130;41.564;23.280;2023-06-10T00:36:29;98327.16;;;18.32;100.00
6194;BME280;3130;41.564;23.280;2023-06-10T00:38:57;98328.31;;;18.37;100.00
6194;BME280;3130;41.564;23.280;2023-06-10T00:41:24;98336.44;;;18.34;100.00
6194;BME280;3130;41.564;23.280;2023-06-10T00:43:52;98336.16;;;18.45;100.00
6194;BME280;3130;41.564;23.280;2023-06-10T00:46:20;98332.00;;;18.60;100.00
6194;BME280;3130;41.564;23.280;2023-06-10T00:48:47;98336.50;;;18.50;100.00
6194;BME280;3130;41.564;23.280;2023-06-10T00:51:15;98332.22;;;18.33;100.00
6194;BME280;3130;41.564;23.280;2023-06-10T00:53:43;98335.78;;;18.32;100.00
6194;BME280;3130;41.564;23.280;2023-06-10T00:56:13;98310.78;;;18.14;100.00
6194;BME280;3130;41.564;23.280;2023-06-10T00:58:40;98324.28;;;18.18;100.00
6194;BME280;3130;41.564;23.280;2023-06-10T01:01:07;98328.63;;;18.09;100.00
6194;BME280;3130;41.564;23.280;2023-06-10T01:03:36;98326.44;;;18.22;100.00
6194;BME280;3130;41.564;23.280;2023-06-10T01:06:09;98314.47;;;18.29;100.00
6194;BME280;3130;41.564;23.280;2023-06-10T01:08:48;98321.97;;;18.32;100.00
6194;BME280;3130;41.564;23.280;2023-06-10T01:11:21;98322.94;;;18.31;100.00
6194;BME280;3130;41.564;23.280;2023-06-10T01:13:50;98323.97;;;18.20;100.00
6194;BME280;3130;41.564;23.280;2023-06-10T01:16:19;98329.53;;;18.25;100.00
6194;BME280;3130;41.564;23.280;2023-06-10T01:18:46;98336.38;;;18.26;100.00
6194;BME280;3130;41.564;23.280;2023-06-10T01:21:19;98341.75;;;18.33;100.00
6194;BME280;3130;41.564;23.280;2023-06-10T01:23:46;98332.88;;;18.35;100.00
6194;BME280;3130;41.564;23.280;2023-06-10T01:26:14;98342.91;;;18.38;100.00
6194;BME280;3130;41.564;23.280;2023-06-10T01:28:47;98347.59;;;18.27;100.00
6194;BME280;3130;41.564;23.280;2023-06-10T01:31:18;98339.53;;;18.20;100.00
6194;BME280;3130;41.564;23.280;2023-06-10T01:33:51;98339.44;;;18.05;100.00
6194;BME280;3130;41.564;23.280;2023-06-10T01:36:21;98311.53;;;17.81;100.00
6194;BME280;3130;41.564;23.280;2023-06-10T01:38:50;98340.34;;;17.96;100.00
6194;BME280;3130;41.564;23.280;2023-06-10T01:41:19;98345.19;;;17.91;100.00
6194;BME280;3130;41.564;23.280;2023-06-10T01:43:48;98340.66;;;17.93;100.00
6194;BME280;3130;41.564;23.280;2023-06-10T01:46:15;98341.53;;;17.84;100.00
6194;BME280;3130;41.564;23.280;2023-06-10T01:48:45;98340.06;;;17.81;100.00
6194;BME280;3130;41.564;23.280;2023-06-10T01:51:12;98339.41;;;17.79;100.00
6194;BME280;3130;41.564;23.280;2023-06-10T01:53:40;98344.38;;;17.90;100.00
6194;BME280;3130;41.564;23.280;2023-06-10T01:56:07;98343.06;;;18.12;100.00
6194;BME280;3130;41.564;23.280;2023-06-10T01:58:35;98330.34;;;18.01;100.00
6194;BME280;3130;41.564;23.280;2023-06-10T02:01:02;98292.09;;;17.60;100.00
6194;BME280;3130;41.564;23.280;2023-06-10T02:03:29;98356.50;;;17.90;100.00
6194;BME280;3130;41.564;23.280;2023-06-10T02:05:56;98364.47;;;17.88;100.00
6194;BME280;3130;41.564;23.280;2023-06-10T02:08:23;98353.88;;;17.82;100.00
6194;BME280;3130;41.564;23.280;2023-06-10T02:10:51;98339.72;;;17.59;100.00
6194;BME280;3130;41.564;23.280;2023-06-10T02:13:18;98355.88;;;17.70;100.00
6194;BME280;3130;41.564;23.280;2023-06-10T02:15:46;98356.00;;;17.69;100.00
6194;BME280;3130;41.564;23.280;2023-06-10T02:18:13;98353.28;;;17.70;100.00
6194;BME280;3130;41.564;23.280;2023-06-10T02:20:40;98308.78;;;17.40;100.00
6194;BME280;3130;41.564;23.280;2023-06-10T02:23:07;98348.91;;;17.71;100.00
6194;BME280;3130;41.564;23.280;2023-06-10T02:25:34;98355.81;;;17.80;100.00
6194;BME280;3130;41.564;23.280;2023-06-10T02:28:02;98332.00;;;17.67;100.00
6194;BME280;3130;41.564;23.280;2023-06-10T02:30:30;98349.19;;;17.68;100.00
6194;BME280;3130;41.564;23.280;2023-06-10T02:32:57;98347.00;;;17.55;100.00
6194;BME280;3130;41.564;23.280;2023-06-10T02:35:24;98348.47;;;17.58;100.00
6194;BME280;3130;41.564;23.280;2023-06-10T02:37:52;98350.63;;;17.62;100.00
6194;BME280;3130;41.564;23.280;2023-06-10T02:40:19;98353.59;;;17.67;100.00
6194;BME280;3130;41.564;23.280;2023-06-10T02:42:46;98350.91;;;17.59;100.00
6194;BME280;3130;41.564;23.280;2023-06-10T02:45:15;98348.72;;;17.47;100.00
6194;BME280;3130;41.564;23.280;2023-06-10T02:47:42;98342.94;;;17.35;100.00
6194;BME280;3130;41.564;23.280;2023-06-10T02:50:09;98307.63;;;17.08;100.00
6194;BME280;3130;41.564;23.280;2023-06-10T02:52:36;98356.97;;;17.33;100.00
6194;BME280;3130;41.564;23.280;2023-06-10T02:55:03;98322.97;;;17.18;100.00
6194;BME280;3130;41.564;23.280;2023-06-10T02:57:30;98337.69;;;17.18;100.00
6194;BME280;3130;41.564;23.280;2023-06-10T02:59:58;98337.84;;;17.17;100.00
6194;BME280;3130;41.564;23.280;2023-06-10T03:02:26;98351.81;;;17.23;100.00
6194;BME280;3130;41.564;23.280;2023-06-10T03:04:55;98357.63;;;17.17;100.00
6194;BME280;3130;41.564;23.280;2023-06-10T03:07:22;98348.09;;;17.09;100.00
6194;BME280;3130;41.564;23.280;2023-06-10T03:09:50;98363.22;;;17.13;100.00
6194;BME280;3130;41.564;23.280;2023-06-10T03:12:17;98305.19;;;16.79;100.00
6194;BME280;3130;41.564;23.280;2023-06-10T03:14:44;98367.16;;;17.17;100.00
6194;BME280;3130;41.564;23.280;2023-06-10T03:17:11;98370.41;;;17.19;100.00
6194;BME280;3130;41.564;23.280;2023-06-10T03:19:39;98371.09;;;17.21;100.00
6194;BME280;3130;41.564;23.280;2023-06-10T03:22:10;98366.47;;;17.15;100.00
6194;BME280;3130;41.564;23.280;2023-06-10T03:24:37;98371.38;;;17.18;100.00
6194;BME280;3130;41.564;23.280;2023-06-10T03:27:06;98366.19;;;17.18;100.00
6194;BME280;3130;41.564;23.280;2023-06-10T03:29:35;98363.66;;;17.09;100.00
6194;BME280;3130;41.564;23.280;2023-06-10T03:32:02;98359.72;;;17.05;100.00
6194;BME280;3130;41.564;23.280;2023-06-10T03:34:29;98373.22;;;17.08;100.00
6194;BME280;3130;41.564;23.280;2023-06-10T03:36:58;98347.41;;;16.89;100.00
6194;BME280;3130;41.564;23.280;2023-06-10T03:39:25;98361.78;;;17.01;100.00
6194;BME280;3130;41.564;23.280;2023-06-10T03:41:54;98367.63;;;17.03;100.00
6194;BME280;3130;41.564;23.280;2023-06-10T03:44:22;98345.84;;;16.96;100.00
6194;BME280;3130;41.564;23.280;2023-06-10T03:46:49;98358.19;;;17.12;100.00
6194;BME280;3130;41.564;23.280;2023-06-10T03:49:16;98365.50;;;17.16;100.00
6194;BME280;3130;41.564;23.280;2023-06-10T03:51:43;98370.03;;;17.14;100.00
6194;BME280;3130;41.564;23.280;2023-06-10T03:54:12;98366.47;;;17.15;100.00
6194;BME280;3130;41.564;23.280;2023-06-10T03:56:39;98360.88;;;17.19;100.00
6194;BME280;3130;41.564;23.280;2023-06-10T03:59:06;98352.19;;;17.11;100.00
6194;BME280;3130;41.564;23.280;2023-06-10T04:01:33;98359.53;;;17.16;100.00
6194;BME280;3130;41.564;23.280;2023-06-10T04:04:00;98360.03;;;17.19;100.00
6194;BME280;3130;41.564;23.280;2023-06-10T04:06:27;98339.47;;;17.17;100.00
6194;BME280;3130;41.564;23.280;2023-06-10T04:08:55;98324.94;;;17.24;100.00
6194;BME280;3130;41.564;23.280;2023-06-10T04:11:24;98362.53;;;17.38;100.00
6194;BME280;3130;41.564;23.280;2023-06-10T04:13:51;98334.50;;;17.24;100.00
6194;BME280;3130;41.564;23.280;2023-06-10T04:16:18;98354.59;;;17.39;100.00
6194;BME280;3130;41.564;23.280;2023-06-10T04:18:46;98346.19;;;17.37;100.00
6194;BME280;3130;41.564;23.280;2023-06-10T04:21:13;98351.94;;;17.49;100.00
6194;BME280;3130;41.564;23.280;2023-06-10T04:23:40;98359.81;;;17.57;100.00
6194;BME280;3130;41.564;23.280;2023-06-10T04:26:08;98354.34;;;17.60;100.00
6194;BME280;3130;41.564;23.280;2023-06-10T04:28:38;98335.34;;;17.59;100.00
6194;BME280;3130;41.564;23.280;2023-06-10T04:31:05;98358.41;;;17.80;100.00
6194;BME280;3130;41.564;23.280;2023-06-10T04:33:32;98357.66;;;17.87;100.00
6194;BME280;3130;41.564;23.280;2023-06-10T04:35:59;98360.28;;;17.95;100.00
6194;BME280;3130;41.564;23.280;2023-06-10T04:38:26;98364.28;;;18.07;100.00
6194;BME280;3130;41.564;23.280;2023-06-10T04:40:53;98351.16;;;18.09;100.00
6194;BME280;3130;41.564;23.280;2023-06-10T04:43:20;98355.94;;;18.21;100.00
6194;BME280;3130;41.564;23.280;2023-06-10T04:45:49;98328.91;;;18.06;100.00
6194;BME280;3130;41.564;23.280;2023-06-10T04:48:16;98359.63;;;18.36;100.00
6194;BME280;3130;41.564;23.280;2023-06-10T04:50:43;98320.00;;;18.26;100.00
6194;BME280;3130;41.564;23.280;2023-06-10T04:53:10;98354.72;;;18.58;100.00
6194;BME280;3130;41.564;23.280;2023-06-10T04:55:37;98357.66;;;18.63;100.00
6194;BME280;3130;41.564;23.280;2023-06-10T04:58:04;98351.88;;;18.77;100.00
6194;BME280;3130;41.564;23.280;2023-06-10T05:00:31;98353.25;;;18.97;100.00
6194;BME280;3130;41.564;23.280;2023-06-10T05:03:00;98354.31;;;19.12;100.00
6194;BME280;3130;41.564;23.280;2023-06-10T05:05:26;98364.56;;;19.14;98.88
6194;BME280;3130;41.564;23.280;2023-06-10T05:07:53;98355.50;;;19.33;98.60
6194;BME280;3130;41.564;23.280;2023-06-10T05:10:21;98355.69;;;19.40;98.72
6194;BME280;3130;41.564;23.280;2023-06-10T05:12:48;98360.09;;;19.55;98.52
6194;BME280;3130;41.564;23.280;2023-06-10T05:15:15;98336.19;;;19.68;98.67
6194;BME280;3130;41.564;23.280;2023-06-10T05:17:42;98345.63;;;19.85;96.99
6194;BME280;3130;41.564;23.280;2023-06-10T05:20:12;98348.75;;;20.12;95.15
6194;BME280;3130;41.564;23.280;2023-06-10T05:22:40;98361.41;;;20.31;94.46
6194;BME280;3130;41.564;23.280;2023-06-10T05:25:08;98366.44;;;20.40;93.79
6194;BME280;3130;41.564;23.280;2023-06-10T05:27:35;98344.16;;;20.38;92.71
6194;BME280;3130;41.564;23.280;2023-06-10T05:30:04;98355.13;;;20.56;92.60
6194;BME280;3130;41.564;23.280;2023-06-10T05:32:33;98359.03;;;20.68;91.52
6194;BME280;3130;41.564;23.280;2023-06-10T05:35:00;98359.63;;;20.78;90.32
6194;BME280;3130;41.564;23.280;2023-06-10T05:37:28;98363.75;;;20.80;90.36
6194;BME280;3130;41.564;23.280;2023-06-10T05:39:55;98362.25;;;20.86;89.99
6194;BME280;3130;41.564;23.280;2023-06-10T05:42:22;98360.75;;;20.99;89.05
6194;BME280;3130;41.564;23.280;2023-06-10T05:44:49;98356.13;;;21.01;89.63
6194;BME280;3130;41.564;23.280;2023-06-10T05:47:16;98358.41;;;21.04;87.85
6194;BME280;3130;41.564;23.280;2023-06-10T05:49:43;98351.66;;;21.18;86.97
6194;BME280;3130;41.564;23.280;2023-06-10T05:52:11;98356.91;;;21.40;86.36
6194;BME280;3130;41.564;23.280;2023-06-10T05:54:39;98358.16;;;21.52;86.07
6194;BME280;3130;41.564;23.280;2023-06-10T05:57:06;98306.44;;;21.33;85.66
6194;BME280;3130;41.564;23.280;2023-06-10T05:59:33;98364.28;;;21.67;84.41
6194;BME280;3130;41.564;23.280;2023-06-10T06:02:00;98336.66;;;21.72;83.62
6194;BME280;3130;41.564;23.280;2023-06-10T06:04:27;98365.59;;;21.85;81.75
6194;BME280;3130;41.564;23.280;2023-06-10T06:06:54;98366.88;;;21.67;81.62
6194;BME280;3130;41.564;23.280;2023-06-10T06:09:21;98346.69;;;21.61;81.37
6194;BME280;3130;41.564;23.280;2023-06-10T06:11:50;98283.81;;;21.26;80.16
6194;BME280;3130;41.564;23.280;2023-06-10T06:14:17;98358.69;;;21.70;80.26
6194;BME280;3130;41.564;23.280;2023-06-10T06:16:44;98272.72;;;21.46;79.92
6194;BME280;3130;41.564;23.280;2023-06-10T06:19:11;98357.56;;;22.09;79.34
6194;BME280;3130;41.564;23.280;2023-06-10T06:21:38;98350.28;;;22.19;78.13
6194;BME280;3130;41.564;23.280;2023-06-10T06:24:06;98354.34;;;22.22;78.04
6194;BME280;3130;41.564;23.280;2023-06-10T06:26:33;98305.09;;;21.82;77.08
6194;BME280;3130;41.564;23.280;2023-06-10T06:29:02;98336.97;;;21.92;77.37
6194;BME280;3130;41.564;23.280;2023-06-10T06:31:29;98348.81;;;22.39;76.67
6194;BME280;3130;41.564;23.280;2023-06-10T06:33:56;98351.78;;;22.65;75.25
6194;BME280;3130;41.564;23.280;2023-06-10T06:36:23;98323.19;;;22.92;74.91
6194;BME280;3130;41.564;23.280;2023-06-10T06:38:50;98343.41;;;23.34;74.31
6194;BME280;3130;41.564;23.280;2023-06-10T06:41:17;98326.84;;;23.47;72.65
6194;BME280;3130;41.564;23.280;2023-06-10T06:43:45;98334.69;;;23.68;72.51
6194;BME280;3130;41.564;23.280;2023-06-10T06:46:13;98333.84;;;23.82;71.28
6194;BME280;3130;41.564;23.280;2023-06-10T06:48:41;98344.31;;;24.03;70.21
6194;BME280;3130;41.564;23.280;2023-06-10T06:51:08;98328.44;;;24.11;69.11
6194;BME280;3130;41.564;23.280;2023-06-10T06:53:35;98335.63;;;24.30;68.54
6194;BME280;3130;41.564;23.280;2023-06-10T06:56:02;98333.06;;;24.43;67.82
6194;BME280;3130;41.564;23.280;2023-06-10T06:58:29;98285.34;;;23.86;66.81
6194;BME280;3130;41.564;23.280;2023-06-10T07:00:56;98328.00;;;24.35;67.34
6194;BME280;3130;41.564;23.280;2023-06-10T07:03:25;98323.41;;;24.71;66.67
6194;BME280;3130;41.564;23.280;2023-06-10T07:05:52;98331.72;;;24.87;65.09
6194;BME280;3130;41.564;23.280;2023-06-10T07:08:19;98325.94;;;24.98;64.95
6194;BME280;3130;41.564;23.280;2023-06-10T07:10:46;98308.38;;;24.99;65.00
6194;BME280;3130;41.564;23.280;2023-06-10T07:13:14;98317.56;;;25.22;65.06
6194;BME280;3130;41.564;23.280;2023-06-10T07:15:41;98324.50;;;25.49;64.92
6194;BME280;3130;41.564;23.280;2023-06-10T07:18:09;98319.88;;;25.70;64.53
6194;BME280;3130;41.564;23.280;2023-06-10T07:20:37;98262.28;;;25.56;62.61
6194;BME280;3130;41.564;23.280;2023-06-10T07:23:04;98265.72;;;25.76;63.03
6194;BME280;3130;41.564;23.280;2023-06-10T07:25:31;98279.50;;;25.97;63.35
6194;BME280;3130;41.564;23.280;2023-06-10T07:27:58;98312.81;;;26.29;61.71
6194;BME280;3130;41.564;23.280;2023-06-10T07:30:25;98228.09;;;26.01;60.88
6194;BME280;3130;41.564;23.280;2023-06-10T07:32:52;98234.13;;;26.21;59.96
6194;BME280;3130;41.564;23.280;2023-06-10T07:35:20;98309.84;;;26.82;58.26
6194;BME280;3130;41.564;23.280;2023-06-10T07:37:48;98311.44;;;26.96;59.74
6194;BME280;3130;41.564;23.280;2023-06-10T07:40:15;98300.47;;;27.06;58.42
6194;BME280;3130;41.564;23.280;2023-06-10T07:42:42;98300.69;;;27.04;58.16
6194;BME280;3130;41.564;23.280;2023-06-10T07:45:10;98301.13;;;27.32;58.28
6194;BME280;3130;41.564;23.280;2023-06-10T07:47:37;98296.28;;;27.60;57.67
6194;BME280;3130;41.564;23.280;2023-06-10T07:50:05;98298.59;;;28.05;56.52
6194;BME280;3130;41.564;23.280;2023-06-10T07:52:32;98276.31;;;29.27;50.92
6194;BME280;3130;41.564;23.280;2023-06-10T07:55:00;98289.25;;;31.06;45.22
6194;BME280;3130;41.564;23.280;2023-06-10T07:57:27;98293.38;;;33.47;40.09
6194;BME280;3130;41.564;23.280;2023-06-10T07:59:57;98288.50;;;36.11;33.84
6194;BME280;3130;41.564;23.280;2023-06-10T08:02:25;98285.81;;;37.57;30.86
6194;BME280;3130;41.564;23.280;2023-06-10T08:04:52;98288.28;;;37.82;29.89
6194;BME280;3130;41.564;23.280;2023-06-10T08:07:19;98282.88;;;35.87;32.91
6194;BME280;3130;41.564;23.280;2023-06-10T08:09:47;98280.63;;;33.76;36.32
6194;BME280;3130;41.564;23.280;2023-06-10T08:12:16;98269.94;;;32.32;40.42
6194;BME280;3130;41.564;23.280;2023-06-10T08:14:43;98238.97;;;31.39;41.94
6194;BME280;3130;41.564;23.280;2023-06-10T08:17:10;98248.63;;;30.89;44.02
6194;BME280;3130;41.564;23.280;2023-06-10T08:19:38;98252.19;;;30.44;45.16
6194;BME280;3130;41.564;23.280;2023-06-10T08:22:05;98247.16;;;30.08;47.26
6194;BME280;3130;41.564;23.280;2023-06-10T08:24:32;98245.16;;;29.81;47.95
6194;BME280;3130;41.564;23.280;2023-06-10T08:27:00;98248.25;;;29.55;48.56
6194;BME280;3130;41.564;23.280;2023-06-10T08:29:28;98240.75;;;29.41;50.33
6194;BME280;3130;41.564;23.280;2023-06-10T08:31:56;98246.91;;;29.35;50.06
6194;BME280;3130;41.564;23.280;2023-06-10T08:34:24;98203.88;;;29.05;49.86
6194;BME280;3130;41.564;23.280;2023-06-10T08:36:51;98225.81;;;29.05;49.85
6194;BME280;3130;41.564;23.280;2023-06-10T08:39:21;98231.56;;;29.02;50.41
6194;BME280;3130;41.564;23.280;2023-06-10T08:42:02;98196.00;;;28.87;51.70
6194;BME280;3130;41.564;23.280;2023-06-10T08:44:31;98229.06;;;29.19;51.27
6194;BME280;3130;41.564;23.280;2023-06-10T08:47:07;98229.34;;;29.29;50.68
6194;BME280;3130;41.564;23.280;2023-06-10T08:49:40;98226.94;;;29.39;50.55
6194;BME280;3130;41.564;23.280;2023-06-10T08:52:11;98224.28;;;29.39;49.64
6194;BME280;3130;41.564;23.280;2023-06-10T08:54:43;98200.81;;;29.19;49.71
6194;BME280;3130;41.564;23.280;2023-06-10T08:57:10;98218.41;;;29.25;49.27
6194;BME280;3130;41.564;23.280;2023-06-10T08:59:40;98215.31;;;29.28;50.56
6194;BME280;3130;41.564;23.280;2023-06-10T09:02:08;98133.56;;;28.92;51.53
6194;BME280;3130;41.564;23.280;2023-06-10T09:04:36;98206.91;;;29.72;50.34
6194;BME280;3130;41.564;23.280;2023-06-10T09:07:04;98141.00;;;29.36;48.50
6194;BME280;3130;41.564;23.280;2023-06-10T09:09:32;98214.13;;;29.88;47.80
6194;BME280;3130;41.564;23.280;2023-06-10T09:12:01;98199.44;;;29.92;46.80
6194;BME280;3130;41.564;23.280;2023-06-10T09:14:28;98217.84;;;30.10;46.38
6194;BME280;3130;41.564;23.280;2023-06-10T09:16:57;98193.34;;;30.14;46.08
6194;BME280;3130;41.564;23.280;2023-06-10T09:19:25;98154.94;;;30.00;45.41
6194;BME280;3130;41.564;23.280;2023-06-10T09:21:53;98190.66;;;30.26;46.02
6194;BME280;3130;41.564;23.280;2023-06-10T09:24:22;98185.41;;;30.14;46.15
6194;BME280;3130;41.564;23.280;2023-06-10T09:26:49;98185.00;;;30.34;44.97
6194;BME280;3130;41.564;23.280;2023-06-10T09:29:17;98179.66;;;30.17;45.00
6194;BME280;3130;41.564;23.280;2023-06-10T09:31:44;98196.13;;;30.47;45.22
6194;BME280;3130;41.564;23.280;2023-06-10T09:34:14;98186.25;;;30.43;44.96
6194;BME280;3130;41.564;23.280;2023-06-10T09:36:42;98188.19;;;30.47;45.52
6194;BME280;3130;41.564;23.280;2023-06-10T09:39:14;98186.53;;;29.61;46.29
6194;BME280;3130;41.564;23.280;2023-06-10T09:41:42;98149.44;;;29.68;45.92
6194;BME280;3130;41.564;23.280;2023-06-10T09:44:12;98184.00;;;29.89;45.72
6194;BME280;3130;41.564;23.280;2023-06-10T09:46:40;98186.88;;;29.87;46.50
6194;BME280;3130;41.564;23.280;2023-06-10T09:49:07;98180.00;;;29.75;46.59
6194;BME280;3130;41.564;23.280;2023-06-10T09:51:36;98176.91;;;29.67;47.31
6194;BME280;3130;41.564;23.280;2023-06-10T09:54:03;98176.63;;;29.45;47.38
6194;BME280;3130;41.564;23.280;2023-06-10T09:56:34;98172.22;;;29.16;47.62
6194;BME280;3130;41.564;23.280;2023-06-10T09:59:02;98165.22;;;29.33;47.31
6194;BME280;3130;41.564;23.280;2023-06-10T10:01:31;98158.34;;;29.32;47.29
6194;BME280;3130;41.564;23.280;2023-06-10T10:03:59;98123.75;;;29.22;47.63
6194;BME280;3130;41.564;23.280;2023-06-10T10:06:27;98153.69;;;29.46;46.83
6194;BME280;3130;41.564;23.280;2023-06-10T10:08:56;98167.59;;;29.41;46.39
6194;BME280;3130;41.564;23.280;2023-06-10T10:11:24;98168.69;;;29.34;46.31
6194;BME280;3130;41.564;23.280;2023-06-10T10:13:53;98161.66;;;29.28;46.50
6194;BME280;3130;41.564;23.280;2023-06-10T10:16:21;98160.75;;;29.22;46.93
6194;BME280;3130;41.564;23.280;2023-06-10T10:18:55;98160.28;;;29.37;46.14
6194;BME280;3130;41.564;23.280;2023-06-10T10:21:26;98159.50;;;29.36;45.89
6194;BME280;3130;41.564;23.280;2023-06-10T10:24:00;98159.81;;;29.28;45.95
6194;BME280;3130;41.564;23.280;2023-06-10T10:26:30;98140.88;;;29.31;44.40
6194;BME280;3130;41.564;23.280;2023-06-10T10:29:06;98137.56;;;29.47;42.55
6194;BME280;3130;41.564;23.280;2023-06-10T10:31:35;98161.38;;;29.81;42.02
6194;BME280;3130;41.564;23.280;2023-06-10T10:34:06;98166.66;;;29.93;42.24
6194;BME280;3130;41.564;23.280;2023-06-10T10:36:34;98170.00;;;30.00;43.37
6194;BME280;3130;41.564;23.280;2023-06-10T10:39:04;98167.81;;;29.74;44.47
6194;BME280;3130;41.564;23.280;2023-06-10T10:41:33;98166.19;;;29.96;43.45
6194;BME280;3130;41.564;23.280;2023-06-10T10:44:01;98161.28;;;29.99;43.95
6194;BME280;3130;41.564;23.280;2023-06-10T10:46:31;98150.34;;;29.73;43.20
6194;BME280;3130;41.564;23.280;2023-06-10T10:49:09;98144.84;;;29.40;44.23
6194;BME280;3130;41.564;23.280;2023-06-10T10:51:37;98160.31;;;29.48;44.29
6194;BME280;3130;41.564;23.280;2023-06-10T10:54:12;98157.88;;;29.35;44.62
6194;BME280;3130;41.564;23.280;2023-06-10T10:56:40;98126.84;;;28.78;46.68
6194;BME280;3130;41.564;23.280;2023-06-10T10:59:43;98094.78;;;28.64;47.15
6194;BME280;3130;41.564;23.280;2023-06-10T11:02:11;98157.25;;;29.10;47.50
6194;BME280;3130;41.564;23.280;2023-06-10T11:04:45;98152.63;;;28.94;48.03
6194;BME280;3130;41.564;23.280;2023-06-10T11:07:13;98148.66;;;29.03;48.33
6194;BME280;3130;41.564;23.280;2023-06-10T11:09:58;98137.16;;;29.09;47.57
6194;BME280;3130;41.564;23.280;2023-06-10T11:12:40;98140.50;;;29.05;48.63
6194;BME280;3130;41.564;23.280;2023-06-10T11:15:08;98146.38;;;29.18;46.94
6194;BME280;3130;41.564;23.280;2023-06-10T11:17:35;98137.28;;;29.14;46.82
6194;BME280;3130;41.564;23.280;2023-06-10T11:20:02;98093.56;;;28.77;46.29
6194;BME280;3130;41.564;23.280;2023-06-10T11:22:30;98080.31;;;28.66;46.72
6194;BME280;3130;41.564;23.280;2023-06-10T11:24:59;98146.09;;;29.08;47.86
6194;BME280;3130;41.564;23.280;2023-06-10T11:27:37;98135.22;;;29.05;49.56
6194;BME280;3130;41.564;23.280;2023-06-10T11:30:20;98143.59;;;29.13;49.82
6194;BME280;3130;41.564;23.280;2023-06-10T11:32:51;98147.16;;;29.07;48.90
6194;BME280;3130;41.564;23.280;2023-06-10T11:35:19;98141.75;;;29.02;48.61
6194;BME280;3130;41.564;23.280;2023-06-10T11:37:47;98142.88;;;28.95;44.60
6194;BME280;3130;41.564;23.280;2023-06-10T11:40:16;98118.78;;;28.73;44.10
6194;BME280;3130;41.564;23.280;2023-06-10T11:42:43;98099.56;;;28.55;44.53
6194;BME280;3130;41.564;23.280;2023-06-10T11:45:15;98134.19;;;28.76;44.50
6194;BME280;3130;41.564;23.280;2023-06-10T11:47:55;98122.94;;;28.70;44.40
6194;BME280;3130;41.564;23.280;2023-06-10T11:50:30;98125.66;;;28.63;44.30
6194;BME280;3130;41.564;23.280;2023-06-10T11:52:57;98115.91;;;28.64;43.08
6194;BME280;3130;41.564;23.280;2023-06-10T11:55:38;98123.69;;;28.59;43.18
6194;BME280;3130;41.564;23.280;2023-06-10T11:58:11;98122.88;;;28.58;43.09
6194;BME280;3130;41.564;23.280;2023-06-10T12:00:44;98116.53;;;28.48;41.60
6194;BME280;3130;41.564;23.280;2023-06-10T12:03:11;98128.78;;;28.42;39.83
6194;BME280;3130;41.564;23.280;2023-06-10T12:05:38;98137.78;;;28.53;40.87
6194;BME280;3130;41.564;23.280;2023-06-10T12:08:09;98134.63;;;28.62;40.58
6194;BME280;3130;41.564;23.280;2023-06-10T12:10:41;98136.78;;;28.65;40.81
6194;BME280;3130;41.564;23.280;2023-06-10T12:13:08;98145.38;;;28.61;40.24
6194;BME280;3130;41.564;23.280;2023-06-10T12:15:36;98141.56;;;28.57;40.63
6194;BME280;3130;41.564;23.280;2023-06-10T12:18:03;98133.38;;;28.47;41.88
6194;BME280;3130;41.564;23.280;2023-06-10T12:20:31;98122.94;;;28.40;42.81
6194;BME280;3130;41.564;23.280;2023-06-10T12:23:00;98114.91;;;28.47;42.36
6194;BME280;3130;41.564;23.280;2023-06-10T12:25:28;98114.03;;;28.53;42.62
6194;BME280;3130;41.564;23.280;2023-06-10T12:27:58;98118.69;;;28.69;42.91
6194;BME280;3130;41.564;23.280;2023-06-10T12:30:26;98114.78;;;28.71;40.52
6194;BME280;3130;41.564;23.280;2023-06-10T12:32:53;98126.91;;;28.61;40.24
6194;BME280;3130;41.564;23.280;2023-06-10T12:35:21;98082.53;;;28.22;40.51
6194;BME280;3130;41.564;23.280;2023-06-10T12:37:57;98109.44;;;27.94;42.32
6194;BME280;3130;41.564;23.280;2023-06-10T12:40:29;98100.19;;;27.50;43.58
6194;BME280;3130;41.564;23.280;2023-06-10T12:42:58;98090.38;;;27.39;45.21
6194;BME280;3130;41.564;23.280;2023-06-10T12:45:30;98068.91;;;27.35;50.14
6194;BME280;3130;41.564;23.280;2023-06-10T12:48:07;98080.19;;;27.42;54.26
6194;BME280;3130;41.564;23.280;2023-06-10T12:50:35;98071.25;;;27.25;56.96
6194;BME280;3130;41.564;23.280;2023-06-10T12:53:04;98058.84;;;27.08;61.58
6194;BME280;3130;41.564;23.280;2023-06-10T12:55:31;98063.28;;;26.59;65.28
6194;BME280;3130;41.564;23.280;2023-06-10T12:58:00;98052.44;;;26.05;68.26
6194;BME280;3130;41.564;23.280;2023-06-10T13:00:27;98066.63;;;25.78;73.37
6194;BME280;3130;41.564;23.280;2023-06-10T13:02:55;98047.38;;;25.47;74.42
6194;BME280;3130;41.564;23.280;2023-06-10T13:05:23;98070.53;;;25.69;74.34
6194;BME280;3130;41.564;23.280;2023-06-10T13:07:50;98023.72;;;25.53;74.23
6194;BME280;3130;41.564;23.280;2023-06-10T13:10:17;98066.78;;;26.02;75.04
6194;BME280;3130;41.564;23.280;2023-06-10T13:12:44;98059.78;;;26.27;69.94
6194;BME280;3130;41.564;23.280;2023-06-10T13:15:14;98080.53;;;26.42;63.20